^^
Station Historical Data
 
Daily Summary for September 22, 2017 Units:  Metric    English   Both
« Previous Day
Next Day »
Daily Weekly Monthly Yearly Custom
  Current: High: Low: Average:
Temperature: 18.4 °C 18.4 °C 7.4 °C 11.2 °C
Dew Point: 7.8 °C 12.8 °C 6.4 °C 9.3 °C
Humidity: 50% 100% 50% 90%
Wind Speed: 2.3km/h 8.2km/h 0.0km/h 0.9km/h
Wind Gust: 11.1km/h 20.9km/h - -
WindWSW - - WSW
Pressure: 1021.6 hPa 1022.2 hPa 1018.5 hPa -
Precipitation: 0.0 mm      
Historical Graphs
 
 
Tabular Data for September 22, 2017
Time Temperature Dew Point Pressure Wind Wind Speed Wind Gust Humidity Rainfall Rate (Hourly) solar Conditions
00:02 12.8 °C 12.8 °C 1018.5 hPa West 1.6 km/h 3.2 km/h 100% 0.0 mm 0.0 W/m2 RA
00:07 12.8 °C 12.8 °C 1018.5 hPa Calm   3.7 km/h 100% 0.0 mm 0.0 W/m2 RA
00:12 12.8 °C 12.8 °C 1018.5 hPa Calm   6.4 km/h 100% 0.0 mm 0.0 W/m2 RA
00:17 12.6 °C 12.6 °C 1018.5 hPa Calm   3.2 km/h 100% 0.0 mm 0.0 W/m2
00:22 12.5 °C 12.5 °C 1018.8 hPa Calm   3.2 km/h 100% 0.0 mm 0.0 W/m2
00:27 12.5 °C 12.5 °C 1018.8 hPa Calm   6.4 km/h 100% 0.0 mm 0.0 W/m2
00:32 12.4 °C 12.4 °C 1018.8 hPa Calm   3.2 km/h 100% 0.0 mm 0.0 W/m2
00:37 12.3 °C 12.3 °C 1019.2 hPa Calm   3.2 km/h 100% 0.0 mm 0.0 W/m2
00:42 12.2 °C 12.2 °C 1019.2 hPa Calm     100% 0.0 mm 0.0 W/m2
00:47 12.1 °C 12.1 °C 1019.2 hPa Calm     100% 0.0 mm 0.0 W/m2
00:52 12.0 °C 12.0 °C 1019.2 hPa Calm   3.2 km/h 100% 0.0 mm 0.0 W/m2
00:57 11.9 °C 11.9 °C 1019.2 hPa Calm   3.2 km/h 100% 0.0 mm 0.0 W/m2
01:02 11.9 °C 11.9 °C 1019.5 hPa Calm   4.8 km/h 100% 0.0 mm 0.0 W/m2
01:07 11.8 °C 11.8 °C 1019.5 hPa Calm   3.2 km/h 100% 0.0 mm 0.0 W/m2
01:12 11.8 °C 11.8 °C 1019.5 hPa Calm     100% 0.0 mm 0.0 W/m2
01:17 11.6 °C 11.6 °C 1019.5 hPa Calm     100% 0.0 mm 0.0 W/m2
01:22 11.6 °C 11.6 °C 1019.5 hPa Calm     100% 0.0 mm 0.0 W/m2
01:27 11.5 °C 11.5 °C 1019.9 hPa Calm     100% 0.0 mm 0.0 W/m2
01:32 11.6 °C 11.6 °C 1019.5 hPa Calm     100% 0.0 mm 0.0 W/m2
01:37 11.5 °C 11.5 °C 1019.9 hPa Calm   4.8 km/h 100% 0.0 mm 0.0 W/m2
01:42 11.5 °C 11.5 °C 1019.9 hPa Calm   4.8 km/h 100% 0.0 mm 0.0 W/m2
01:47 11.5 °C 11.5 °C 1019.9 hPa West 0.3 km/h 5.6 km/h 100% 0.0 mm 0.0 W/m2
01:52 11.5 °C 11.5 °C 1019.9 hPa Calm   3.7 km/h 100% 0.0 mm 0.0 W/m2
01:57 11.3 °C 11.3 °C 1019.9 hPa Calm   3.7 km/h 100% 0.0 mm 0.0 W/m2
02:02 11.2 °C 11.2 °C 1019.9 hPa WNW 0.2 km/h 3.7 km/h 100% 0.0 mm 0.0 W/m2
02:08 11.1 °C 11.1 °C 1019.9 hPa Calm   3.7 km/h 100% 0.0 mm 0.0 W/m2
02:13 11.0 °C 11.0 °C 1019.9 hPa Calm   3.7 km/h 100% 0.0 mm 0.0 W/m2
02:18 10.8 °C 10.8 °C 1019.9 hPa Calm     100% 0.0 mm 0.0 W/m2
02:23 10.8 °C 10.8 °C 1019.9 hPa WNW 0.2 km/h   100% 0.0 mm 0.0 W/m2
02:28 10.8 °C 10.8 °C 1019.9 hPa Calm   5.6 km/h 100% 0.0 mm 0.0 W/m2
02:33 10.8 °C 10.8 °C 1019.9 hPa WNW 1.1 km/h 5.6 km/h 100% 0.0 mm 0.0 W/m2
02:39 10.8 °C 10.8 °C 1019.9 hPa WNW 2.7 km/h 5.6 km/h 100% 0.0 mm 0.0 W/m2
02:44 10.7 °C 10.7 °C 1019.9 hPa SSW 0.8 km/h 9.3 km/h 100% 0.0 mm 0.0 W/m2
02:49 10.6 °C 10.6 °C 1019.9 hPa WNW 0.5 km/h 9.3 km/h 100% 0.0 mm 0.0 W/m2
02:54 10.5 °C 10.5 °C 1019.9 hPa West 0.2 km/h 5.6 km/h 100% 0.0 mm 0.0 W/m2
03:00 10.5 °C 10.5 °C 1020.2 hPa Calm   5.6 km/h 100% 0.0 mm 0.0 W/m2
03:05 10.4 °C 10.4 °C 1019.9 hPa Calm   5.6 km/h 100% 0.0 mm 0.0 W/m2
03:10 10.3 °C 10.3 °C 1019.9 hPa Calm   1.9 km/h 100% 0.0 mm 0.0 W/m2
03:15 10.3 °C 10.3 °C 1019.9 hPa Calm     100% 0.0 mm 0.0 W/m2
03:20 10.2 °C 10.2 °C 1019.9 hPa Calm   3.7 km/h 100% 0.0 mm 0.0 W/m2
03:26 10.1 °C 10.1 °C 1020.2 hPa Calm   3.7 km/h 100% 0.0 mm 0.0 W/m2
03:36 10.0 °C 10.0 °C 1020.2 hPa Calm   1.9 km/h 100% 0.0 mm 0.0 W/m2
03:41 9.8 °C 9.8 °C 1019.9 hPa Calm   1.9 km/h 100% 0.0 mm 0.0 W/m2
03:46 9.8 °C 9.8 °C 1020.2 hPa Calm   3.7 km/h 100% 0.0 mm 0.0 W/m2
03:51 9.7 °C 9.7 °C 1019.9 hPa Calm   3.7 km/h 100% 0.0 mm 0.0 W/m2
03:57 9.6 °C 9.6 °C 1019.9 hPa Calm   6.4 km/h 100% 0.0 mm 0.0 W/m2
04:07 9.5 °C 9.5 °C 1020.2 hPa Calm   3.2 km/h 100% 0.0 mm 0.0 W/m2
04:12 9.5 °C 9.5 °C 1020.2 hPa Calm   3.2 km/h 100% 0.0 mm 0.0 W/m2
04:17 9.4 °C 9.4 °C 1020.2 hPa WNW 0.5 km/h 3.7 km/h 100% 0.0 mm 0.0 W/m2
04:22 9.3 °C 9.3 °C 1020.2 hPa Calm     100% 0.0 mm 0.0 W/m2
04:27 9.3 °C 9.3 °C 1020.2 hPa Calm     100% 0.0 mm 0.0 W/m2
04:32 9.1 °C 9.1 °C 1020.2 hPa Calm     100% 0.0 mm 0.0 W/m2
04:37 9.1 °C 9.1 °C 1020.5 hPa WNW 0.8 km/h   100% 0.0 mm 0.0 W/m2
04:42 9.0 °C 9.0 °C 1020.5 hPa Calm   1.6 km/h 100% 0.0 mm 0.0 W/m2
04:47 8.8 °C 8.8 °C 1020.5 hPa Calm   4.8 km/h 100% 0.0 mm 0.0 W/m2
04:52 8.8 °C 8.8 °C 1020.5 hPa Calm     100% 0.0 mm 0.0 W/m2
04:57 8.6 °C 8.6 °C 1020.2 hPa Calm   5.6 km/h 100% 0.0 mm 0.0 W/m2
05:02 8.6 °C 8.6 °C 1020.2 hPa Calm     100% 0.0 mm 0.0 W/m2
05:07 8.5 °C 8.5 °C 1020.2 hPa Calm     100% 0.0 mm 0.0 W/m2
05:12 8.4 °C 8.4 °C 1020.2 hPa Calm     100% 0.0 mm 0.0 W/m2
05:17 8.3 °C 8.3 °C 1020.5 hPa Calm     100% 0.0 mm 0.0 W/m2
05:22 8.1 °C 8.1 °C 1020.5 hPa Calm     100% 0.0 mm 0.0 W/m2
05:27 8.0 °C 8.0 °C 1020.5 hPa Calm     100% 0.0 mm 0.0 W/m2
05:32 8.1 °C 8.1 °C 1020.5 hPa Calm     100% 0.0 mm 0.0 W/m2
05:37 8.1 °C 8.1 °C 1020.5 hPa Calm     100% 0.0 mm 0.0 W/m2
05:42 8.0 °C 8.0 °C 1020.5 hPa Calm     100% 0.0 mm 0.0 W/m2 CLR
05:47 7.8 °C 7.8 °C 1020.5 hPa Calm     100% 0.0 mm 0.0 W/m2
05:52 8.0 °C 8.0 °C 1020.5 hPa Calm   3.2 km/h 100% 0.0 mm 0.0 W/m2
05:57 8.0 °C 8.0 °C 1020.5 hPa Calm   6.4 km/h 100% 0.0 mm 0.0 W/m2
06:02 8.0 °C 8.0 °C 1020.5 hPa Calm   3.2 km/h 100% 0.0 mm 0.0 W/m2
06:07 8.0 °C 8.0 °C 1020.5 hPa WNW 1.0 km/h 3.7 km/h 100% 0.0 mm 0.0 W/m2
06:12 8.0 °C 8.0 °C 1020.5 hPa Calm     100% 0.0 mm 0.0 W/m2
06:17 7.9 °C 7.9 °C 1020.5 hPa Calm   3.7 km/h 100% 0.0 mm 0.0 W/m2
06:22 7.8 °C 7.8 °C 1020.9 hPa Calm     100% 0.0 mm 0.0 W/m2
06:27 7.8 °C 7.8 °C 1020.9 hPa Calm     100% 0.0 mm 0.0 W/m2
06:32 7.8 °C 7.8 °C 1020.9 hPa Calm     100% 0.0 mm 0.0 W/m2
06:37 7.7 °C 7.7 °C 1020.9 hPa Calm     100% 0.0 mm 0.0 W/m2 CLR
06:42 7.6 °C 7.7 °C 1020.9 hPa Calm     100% 0.0 mm 0.0 W/m2 OVC
06:47 7.6 °C 7.6 °C 1020.9 hPa Calm     100% 0.0 mm 0.0 W/m2 OVC
06:52 7.6 °C 7.6 °C 1020.9 hPa Calm     100% 0.0 mm 0.0 W/m2 OVC
06:57 7.6 °C 7.6 °C 1021.2 hPa Calm   3.2 km/h 100% 0.0 mm 0.0 W/m2 OVC
07:02 7.6 °C 7.6 °C 1021.6 hPa Calm   3.2 km/h 100% 0.0 mm 0.2 W/m2 OVC
07:07 7.5 °C 7.5 °C 1021.2 hPa Calm     100% 0.0 mm 1.7 W/m2 OVC
07:17 7.5 °C 7.5 °C 1021.6 hPa Calm     100% 0.0 mm 6.1 W/m2 OVC
07:22 7.4 °C 7.4 °C 1021.6 hPa Calm     100% 0.0 mm 8.5 W/m2 CLR
07:27 7.6 °C 7.6 °C 1021.6 hPa Calm     100% 0.0 mm 12.0 W/m2 OVC
07:32 7.7 °C 7.7 °C 1021.6 hPa WSW 1.1 km/h 3.7 km/h 100% 0.0 mm 15.2 W/m2 CLR
07:37 7.7 °C 7.7 °C 1021.6 hPa Calm   3.2 km/h 100% 0.0 mm 19.4 W/m2 OVC
07:42 7.8 °C 7.8 °C 1021.6 hPa Calm   1.6 km/h 100% 0.0 mm 25.2 W/m2 OVC
07:47 7.9 °C 7.9 °C 1021.6 hPa West 1.6 km/h 3.2 km/h 100% 0.0 mm 31.0 W/m2 OVC
07:52 8.0 °C 8.0 °C 1021.6 hPa West 1.6 km/h 6.4 km/h 100% 0.0 mm 35.5 W/m2 OVC
07:57 8.1 °C 8.1 °C 1021.6 hPa Calm   6.4 km/h 100% 0.0 mm 40.5 W/m2 OVC
08:02 8.2 °C 8.2 °C 1021.6 hPa Calm   8.0 km/h 100% 0.0 mm 45.6 W/m2 OVC
08:07 8.3 °C 8.3 °C 1021.9 hPa WNW 1.6 km/h 9.7 km/h 100% 0.0 mm 50.5 W/m2 OVC
08:12 8.4 °C 8.4 °C 1021.9 hPa WNW 1.6 km/h 8.0 km/h 100% 0.0 mm 55.6 W/m2 OVC
08:18 8.6 °C 8.6 °C 1021.9 hPa Calm   7.4 km/h 100% 0.0 mm 63.2 W/m2 FEW
08:23 8.6 °C 8.6 °C 1021.9 hPa West 1.8 km/h 11.1 km/h 100% 0.0 mm 67.2 W/m2 FEW
08:29 8.8 °C 8.8 °C 1021.9 hPa West 0.8 km/h 11.1 km/h 100% 0.0 mm 78.3 W/m2 FEW
08:34 8.8 °C 8.8 °C 1021.9 hPa Calm   5.6 km/h 100% 0.0 mm 94.3 W/m2 CLR
08:39 8.9 °C 8.9 °C 1021.9 hPa NW 2.4 km/h 11.1 km/h 100% 0.0 mm 99.2 W/m2 CLR
08:44 9.0 °C 9.0 °C 1021.9 hPa WNW 0.3 km/h 11.1 km/h 100% 0.0 mm 107.3 W/m2 CLR
08:49 9.1 °C 9.1 °C 1021.9 hPa Calm   7.4 km/h 100% 0.0 mm 119.0 W/m2 CLR
08:54 9.2 °C 9.2 °C 1021.9 hPa Calm   5.6 km/h 100% 0.0 mm 134.8 W/m2 CLR
09:00 9.4 °C 9.4 °C 1021.9 hPa Calm   3.7 km/h 100% 0.0 mm 150.4 W/m2 CLR
09:05 9.5 °C 9.5 °C 1021.9 hPa Calm   3.7 km/h 100% 0.0 mm 159.8 W/m2 CLR
09:10 9.7 °C 9.7 °C 1021.9 hPa Calm   1.9 km/h 100% 0.0 mm 179.1 W/m2 CLR
09:15 9.9 °C 9.9 °C 1021.9 hPa Calm   1.9 km/h 100% 0.0 mm 203.6 W/m2 CLR
09:20 10.1 °C 10.1 °C 1021.9 hPa Calm     100% 0.0 mm 226.0 W/m2 CLR
09:26 10.1 °C 10.1 °C 1021.9 hPa Calm   1.9 km/h 100% 0.0 mm 242.1 W/m2 CLR
09:31 10.3 °C 10.3 °C 1021.9 hPa West 0.3 km/h 1.9 km/h 100% 0.0 mm 257.9 W/m2 CLR
09:32 10.4 °C 10.4 °C 1021.9 hPa Calm   1.9 km/h 100% 0.0 mm 257.7 W/m2 CLR
09:37 10.6 °C 10.6 °C 1022.2 hPa Calm   1.9 km/h 100% 0.0 mm 262.3 W/m2 CLR
09:42 10.8 °C 10.8 °C 1022.2 hPa West 1.1 km/h   100% 0.0 mm 268.4 W/m2 CLR
09:48 11.0 °C 11.0 °C 1022.2 hPa Calm   5.6 km/h 100% 0.0 mm 263.3 W/m2 CLR
09:53 11.2 °C 11.2 °C 1022.2 hPa West 0.2 km/h 5.6 km/h 100% 0.0 mm 275.7 W/m2 CLR
09:58 11.5 °C 11.5 °C 1021.9 hPa NW 1.1 km/h 3.7 km/h 100% 0.0 mm 292.9 W/m2 CLR
10:03 11.6 °C 11.6 °C 1022.2 hPa SW 0.2 km/h 5.6 km/h 100% 0.0 mm 293.8 W/m2 CLR
10:08 11.8 °C 11.8 °C 1022.2 hPa WSW 2.3 km/h 5.6 km/h 100% 0.0 mm 313.5 W/m2 CLR
10:14 11.8 °C 11.5 °C 1022.2 hPa West 0.8 km/h 5.6 km/h 98% 0.0 mm 319.9 W/m2 CLR
10:19 12.1 °C 11.5 °C 1021.9 hPa WSW 0.2 km/h 5.6 km/h 96% 0.0 mm 304.1 W/m2 CLR
10:24 12.1 °C 11.0 °C 1021.9 hPa WSW 1.0 km/h 5.6 km/h 93% 0.0 mm 322.4 W/m2 CLR
10:29 12.1 °C 10.5 °C 1021.9 hPa Calm   9.3 km/h 90% 0.0 mm 316.7 W/m2 CLR
10:34 12.3 °C 10.7 °C 1022.2 hPa SW 1.9 km/h 9.3 km/h 90% 0.0 mm 334.1 W/m2 CLR
10:40 12.5 °C 10.4 °C 1022.2 hPa WSW 1.0 km/h 7.4 km/h 87% 0.0 mm 338.3 W/m2 CLR
10:45 12.7 °C 9.7 °C 1022.2 hPa WSW 3.5 km/h 11.1 km/h 82% 0.0 mm 345.8 W/m2 CLR
10:50 12.8 °C 10.0 °C 1022.2 hPa South 2.9 km/h 11.1 km/h 83% 0.0 mm 348.5 W/m2 CLR
10:55 13.0 °C 9.8 °C 1022.2 hPa SW 2.9 km/h 9.3 km/h 81% 0.0 mm 361.1 W/m2 CLR
11:00 13.2 °C 9.6 °C 1022.2 hPa SSW 3.5 km/h 9.3 km/h 79% 0.0 mm 335.3 W/m2 CLR
11:05 13.4 °C 9.4 °C 1021.9 hPa SSW 4.5 km/h 11.1 km/h 77% 0.0 mm 328.1 W/m2 CLR
11:11 13.3 °C 8.9 °C 1022.2 hPa WSW 8.2 km/h 11.1 km/h 75% 0.0 mm 341.4 W/m2 CLR
11:16 13.5 °C 8.6 °C 1022.2 hPa SW 1.1 km/h 13.0 km/h 72% 0.0 mm 345.8 W/m2 CLR
11:21 13.6 °C 8.7 °C 1021.9 hPa SW 2.4 km/h 13.0 km/h 72% 0.0 mm 363.4 W/m2 CLR
11:26 13.7 °C 8.3 °C 1021.9 hPa West 1.1 km/h 7.4 km/h 70% 0.0 mm 385.3 W/m2 CLR
11:31 14.0 °C 7.7 °C 1022.2 hPa WSW 3.4 km/h 11.1 km/h 66% 0.0 mm 374.7 W/m2 CLR
11:36 14.0 °C 8.2 °C 1022.2 hPa SSW 5.6 km/h 11.1 km/h 68% 0.0 mm 368.6 W/m2 CLR
11:41 14.0 °C 7.7 °C 1022.2 hPa West 0.3 km/h 11.1 km/h 66% 0.0 mm 364.6 W/m2 CLR
11:47 14.0 °C 7.5 °C 1022.2 hPa WSW 1.6 km/h 9.7 km/h 65% 0.0 mm 381.6 W/m2 SCT
11:52 14.3 °C 7.1 °C 1021.9 hPa WSW 4.8 km/h 14.5 km/h 62% 0.0 mm 372.2 W/m2 SCT
11:57 14.3 °C 6.9 °C 1022.2 hPa WSW 1.6 km/h 11.3 km/h 61% 0.0 mm 357.7 W/m2 SCT
12:02 14.5 °C 6.8 °C 1022.2 hPa WSW 3.2 km/h 12.9 km/h 60% 0.0 mm 361.4 W/m2 SCT
12:07 14.6 °C 6.9 °C 1022.2 hPa WSW 4.8 km/h 11.3 km/h 60% 0.0 mm 373.0 W/m2 SCT
12:12 14.8 °C 7.6 °C 1022.2 hPa SW 3.2 km/h 11.3 km/h 62% 0.0 mm 384.8 W/m2 SCT
12:17 14.8 °C 7.6 °C 1022.2 hPa Calm   9.7 km/h 62% 0.0 mm 410.8 W/m2 SCT
12:22 14.9 °C 7.5 °C 1022.2 hPa West 1.6 km/h 11.3 km/h 61% 0.0 mm 416.5 W/m2 SCT
12:27 15.1 °C 7.2 °C 1021.9 hPa West 1.6 km/h 14.5 km/h 59% 0.0 mm 417.9 W/m2 SCT
12:32 15.0 °C 6.6 °C 1022.2 hPa WSW 2.6 km/h 14.8 km/h 57% 0.0 mm 451.0 W/m2 CLR
12:37 15.1 °C 6.9 °C 1021.9 hPa West 4.8 km/h 20.9 km/h 58% 0.0 mm 474.2 W/m2 FEW
12:42 15.3 °C 7.3 °C 1022.2 hPa WSW 3.5 km/h 20.4 km/h 59% 0.0 mm 476.7 W/m2 CLR
12:47 15.3 °C 7.6 °C 1021.9 hPa West 1.6 km/h 9.7 km/h 60% 0.0 mm 489.2 W/m2 FEW
12:52 15.6 °C 8.1 °C 1021.9 hPa WSW 3.2 km/h 9.7 km/h 61% 0.0 mm 496.7 W/m2 FEW
12:57 15.7 °C 7.2 °C 1021.9 hPa SW 1.6 km/h 8.0 km/h 57% 0.0 mm 533.2 W/m2 CLR
13:02 15.6 °C 7.1 °C 1021.9 hPa SW 3.2 km/h 9.7 km/h 57% 0.0 mm 539.8 W/m2 CLR
13:07 15.9 °C 7.3 °C 1021.9 hPa SW 1.6 km/h 11.3 km/h 57% 0.0 mm 521.5 W/m2 CLR
13:12 16.1 °C 7.3 °C 1021.9 hPa SSW 4.8 km/h 12.9 km/h 56% 0.0 mm 499.9 W/m2 FEW
13:17 16.1 °C 7.1 °C 1021.9 hPa SSW 1.6 km/h 11.3 km/h 55% 0.0 mm 488.4 W/m2 FEW
13:22 16.1 °C 7.1 °C 1021.9 hPa SW 1.6 km/h 12.9 km/h 55% 0.0 mm 508.0 W/m2 CLR
13:27 16.3 °C 7.5 °C 1021.9 hPa WSW 1.6 km/h 11.3 km/h 56% 0.0 mm 506.3 W/m2 CLR
13:32 16.3 °C 6.4 °C 1021.9 hPa WSW 4.8 km/h 9.7 km/h 52% 0.0 mm 506.1 W/m2 CLR
13:37 16.3 °C 7.2 °C 1021.6 hPa ESE 3.7 km/h 11.1 km/h 55% 0.0 mm 513.2 W/m2 CLR
13:42 16.5 °C 6.9 °C 1021.6 hPa WSW 1.6 km/h 6.4 km/h 53% 0.0 mm 531.3 W/m2 CLR
13:47 16.5 °C 7.4 °C 1021.9 hPa NW 0.6 km/h 9.3 km/h 55% 0.0 mm 539.6 W/m2 CLR
13:52 16.8 °C 7.9 °C 1021.6 hPa ESE 0.3 km/h 11.1 km/h 56% 0.0 mm 520.7 W/m2 CLR
13:57 16.9 °C 7.8 °C 1021.6 hPa NW 2.6 km/h 11.1 km/h 55% 0.0 mm 531.1 W/m2 CLR
14:02 17.0 °C 7.9 °C 1021.6 hPa SW 0.2 km/h 9.3 km/h 55% 0.0 mm 513.8 W/m2 CLR
14:07 17.1 °C 8.0 °C 1021.6 hPa West 1.6 km/h 11.1 km/h 55% 0.0 mm 490.8 W/m2 CLR
14:12 17.4 °C 7.2 °C 1021.6 hPa Calm   11.1 km/h 51% 0.0 mm 477.2 W/m2 CLR
14:17 18.2 °C 8.4 °C 1021.6 hPa SSW 4.0 km/h 11.1 km/h 53% 0.0 mm 456.2 W/m2 CLR
14:23 18.4 °C 7.8 °C 1021.6 hPa WSW 2.3 km/h 11.1 km/h 50% 0.0 mm 441.4 W/m2 CLR
Chelmer Village, Chelmsford, UK
Compliments of Weather Underground - 3 mb